Amble, United Kingdom
Current Conditions -  °F | °C
As of 12:50 AM on Friday 28 Nov 2014 (Local Time) from EGQM Reporting Station
Few Clouds Few Clouds  
Wind Chill: 40°   Ceiling: Unl
Heat Index: 45°   Visibility: 6mi
Dew Point: 45°   Wind: 9mph
Humidity: 100%   Direction: 180°S
Pressure: 29.65"   Gusts: NA
Location:  55.33°N, 1.58°W
Report Text: EGQM 280050Z AUTO 18008KT 9999 FEW100/// 07/07 Q1004
Loading
Personal Weather Stations






























Interactive Weather Map New forecast layout! Learn more

10-Day Weather Forecast

Advertisements
Track Severe Weather on mobile